Pagrindinis puslapis
METAR-TAF:

METAR-TAF

Oro uostai :

Phetčabunas, Tailandas

platuma: 16-40-33N, ilguma: 101-11-42E, Aukštis: 137 m

Dabartinis oras

Ataskaita buvo paskelbta 32 minutes, ne 04:00 UTC
Vėjas 2 kt nuo kintamojo kryptimis
Temperatūra 32°C
Drėgmė 63%
Slėgis 1010 hPa
Matomumas: 8000 m
Mažai debesys ne aukštis 1800 ft
Išsisklaidę debesys ne aukštis 2000 ft

METAR: VTPB 210400Z VRB02KT 8000 FEW018 SCT020 32/24 Q1010 NOSIG

Laikas: 11:32 (04:32 UTC)

Prognozė

Ataskaita buvo paskelbta 5 valandos ir 32 minutes, ne 23:00 UTC
Prognozė galioja nuo 21 metu 00 UTC su 21 metu 24 UTC
Vėjas 5 kt iš Šiaurės
Matomumas 10 km arba daugiau
Su prošvaistėmis ne aukštis 2000 ft
Laikinai
nuo 21 metu 06 UTC su 21 metu 12 UTC
Vėjas 15 kt nuo kintamojo kryptimis su gūsio iki 25 kt
Matomumas: 5000 m
Mažai debesys ne aukštis 2000 ft, Liūtiniai kamuoliniai debesys.
Su prošvaistėmis ne aukštis 2500 ft
perkūnija, lietus

TAF: VTPB 202300Z 2100/2124 01005KT 9999 BKN020 TEMPO 2106/2112 VRB15G25KT 5000 TSRA FEW020CB BKN025

Orai ataskaitas ir orų prognozės (METAR, TAF).

turimą stotys yra geltonos ir raudonos taškus žemėlapyje.

Perkelti pele per norėdami pamatyti stoties vardą.

Tada spustelėkite, norėdami matyti oro stebėjimo ir prognozės.

Norėdami pakeisti žemėlapį: spustelėkite ant žalios mygtukų su juodo kryžiaus žemyn,; žalią mygtuką su brūkšneliu, jei norite nutolinti; arba žalių rodyklių gretimoms žemėlapius.


METAR-TAF: